sensor_id;sensor_type;location;lat;lon;timestamp;P1;durP1;ratioP1;P2;durP2;ratioP2
76125;SDS011;65174;48.138;21.002;2023-02-28T00:00:03;5.20;;;4.32;;
76125;SDS011;65174;48.138;21.002;2023-02-28T00:03:15;5.07;;;2.47;;
76125;SDS011;65174;48.138;21.002;2023-02-28T00:06:17;10.02;;;4.32;;
76125;SDS011;65174;48.138;21.002;2023-02-28T00:09:20;7.80;;;3.70;;
76125;SDS011;65174;48.138;21.002;2023-02-28T00:12:22;5.03;;;3.22;;
76125;SDS011;65174;48.138;21.002;2023-02-28T00:15:25;5.47;;;3.07;;
76125;SDS011;65174;48.138;21.002;2023-02-28T00:18:27;10.77;;;3.67;;
76125;SDS011;65174;48.138;21.002;2023-02-28T00:21:32;4.55;;;3.17;;
76125;SDS011;65174;48.138;21.002;2023-02-28T00:24:34;4.15;;;3.05;;
76125;SDS011;65174;48.138;21.002;2023-02-28T00:27:36;3.63;;;2.47;;
76125;SDS011;65174;48.138;21.002;2023-02-28T00:30:39;9.10;;;4.20;;
76125;SDS011;65174;48.138;21.002;2023-02-28T00:33:42;5.37;;;3.23;;
76125;SDS011;65174;48.138;21.002;2023-02-28T00:36:43;9.10;;;3.20;;
76125;SDS011;65174;48.138;21.002;2023-02-28T00:39:47;7.85;;;3.55;;
76125;SDS011;65174;48.138;21.002;2023-02-28T00:42:50;8.63;;;3.60;;
76125;SDS011;65174;48.138;21.002;2023-02-28T00:45:52;7.20;;;3.15;;
76125;SDS011;65174;48.138;21.002;2023-02-28T00:48:54;5.47;;;3.03;;
76125;SDS011;65174;48.138;21.002;2023-02-28T00:51:57;11.57;;;4.25;;
76125;SDS011;65174;48.138;21.002;2023-02-28T00:55:00;13.68;;;4.68;;
76125;SDS011;65174;48.138;21.002;2023-02-28T00:58:02;6.45;;;2.80;;
76125;SDS011;65174;48.138;21.002;2023-02-28T01:01:04;9.23;;;4.00;;
76125;SDS011;65174;48.138;21.002;2023-02-28T01:04:06;7.33;;;3.60;;
76125;SDS011;65174;48.138;21.002;2023-02-28T01:07:09;9.93;;;3.40;;
76125;SDS011;65174;48.138;21.002;2023-02-28T01:10:11;6.95;;;2.95;;
76125;SDS011;65174;48.138;21.002;2023-02-28T01:13:14;9.90;;;3.75;;
76125;SDS011;65174;48.138;21.002;2023-02-28T01:16:16;6.60;;;2.60;;
76125;SDS011;65174;48.138;21.002;2023-02-28T01:19:19;9.07;;;4.03;;
76125;SDS011;65174;48.138;21.002;2023-02-28T01:22:24;7.75;;;4.43;;
76125;SDS011;65174;48.138;21.002;2023-02-28T01:25:26;7.25;;;2.67;;
76125;SDS011;65174;48.138;21.002;2023-02-28T01:28:28;4.43;;;2.42;;
76125;SDS011;65174;48.138;21.002;2023-02-28T01:31:31;4.80;;;3.33;;
76125;SDS011;65174;48.138;21.002;2023-02-28T01:34:33;4.03;;;2.40;;
76125;SDS011;65174;48.138;21.002;2023-02-28T01:37:37;5.97;;;3.35;;
76125;SDS011;65174;48.138;21.002;2023-02-28T01:40:40;6.05;;;2.75;;
76125;SDS011;65174;48.138;21.002;2023-02-28T01:46:46;4.40;;;2.33;;
76125;SDS011;65174;48.138;21.002;2023-02-28T01:49:48;3.83;;;2.53;;
76125;SDS011;65174;48.138;21.002;2023-02-28T01:52:54;16.95;;;3.90;;
76125;SDS011;65174;48.138;21.002;2023-02-28T01:56:00;4.63;;;2.50;;
76125;SDS011;65174;48.138;21.002;2023-02-28T01:59:05;7.85;;;2.58;;
76125;SDS011;65174;48.138;21.002;2023-02-28T02:02:08;9.43;;;3.72;;
76125;SDS011;65174;48.138;21.002;2023-02-28T02:05:11;4.37;;;2.80;;
76125;SDS011;65174;48.138;21.002;2023-02-28T02:08:25;5.50;;;3.50;;
76125;SDS011;65174;48.138;21.002;2023-02-28T02:11:29;7.07;;;3.65;;
76125;SDS011;65174;48.138;21.002;2023-02-28T02:14:43;4.65;;;3.08;;
76125;SDS011;65174;48.138;21.002;2023-02-28T02:17:52;6.82;;;3.58;;
76125;SDS011;65174;48.138;21.002;2023-02-28T02:27:36;5.63;;;3.10;;
76125;SDS011;65174;48.138;21.002;2023-02-28T02:41:04;5.43;;;3.72;;
76125;SDS011;65174;48.138;21.002;2023-02-28T02:44:21;4.20;;;2.78;;
76125;SDS011;65174;48.138;21.002;2023-02-28T02:47:29;5.43;;;3.15;;
76125;SDS011;65174;48.138;21.002;2023-02-28T02:50:35;7.28;;;4.80;;
76125;SDS011;65174;48.138;21.002;2023-02-28T02:53:42;5.37;;;2.30;;
76125;SDS011;65174;48.138;21.002;2023-02-28T02:56:50;6.47;;;3.15;;
76125;SDS011;65174;48.138;21.002;2023-02-28T02:59:53;4.47;;;3.97;;
76125;SDS011;65174;48.138;21.002;2023-02-28T03:02:58;6.30;;;3.75;;
76125;SDS011;65174;48.138;21.002;2023-02-28T03:06:02;4.22;;;2.63;;
76125;SDS011;65174;48.138;21.002;2023-02-28T03:09:06;7.83;;;3.83;;
76125;SDS011;65174;48.138;21.002;2023-02-28T03:12:09;4.75;;;3.83;;
76125;SDS011;65174;48.138;21.002;2023-02-28T03:15:23;4.38;;;2.60;;
76125;SDS011;65174;48.138;21.002;2023-02-28T03:21:58;4.40;;;3.07;;
76125;SDS011;65174;48.138;21.002;2023-02-28T03:25:18;6.33;;;4.00;;
76125;SDS011;65174;48.138;21.002;2023-02-28T03:28:53;6.57;;;3.35;;
76125;SDS011;65174;48.138;21.002;2023-02-28T03:35:23;5.45;;;3.40;;
76125;SDS011;65174;48.138;21.002;2023-02-28T03:38:40;5.73;;;3.60;;
76125;SDS011;65174;48.138;21.002;2023-02-28T03:41:52;4.47;;;1.97;;
76125;SDS011;65174;48.138;21.002;2023-02-28T03:45:02;4.13;;;2.13;;
76125;SDS011;65174;48.138;21.002;2023-02-28T03:48:13;5.38;;;3.60;;
76125;SDS011;65174;48.138;21.002;2023-02-28T03:51:22;4.75;;;2.97;;
76125;SDS011;65174;48.138;21.002;2023-02-28T03:54:29;6.93;;;4.07;;
76125;SDS011;65174;48.138;21.002;2023-02-28T03:57:39;6.37;;;3.87;;
76125;SDS011;65174;48.138;21.002;2023-02-28T04:00:50;5.85;;;3.22;;
76125;SDS011;65174;48.138;21.002;2023-02-28T04:03:59;5.55;;;3.28;;
76125;SDS011;65174;48.138;21.002;2023-02-28T04:07:05;4.90;;;3.50;;
76125;SDS011;65174;48.138;21.002;2023-02-28T04:10:09;3.13;;;2.20;;
76125;SDS011;65174;48.138;21.002;2023-02-28T04:13:14;5.03;;;2.73;;
76125;SDS011;65174;48.138;21.002;2023-02-28T04:16:16;4.80;;;2.67;;
76125;SDS011;65174;48.138;21.002;2023-02-28T04:19:34;5.38;;;3.15;;
76125;SDS011;65174;48.138;21.002;2023-02-28T04:22:36;9.05;;;3.90;;
76125;SDS011;65174;48.138;21.002;2023-02-28T04:25:38;7.30;;;3.63;;
76125;SDS011;65174;48.138;21.002;2023-02-28T04:28:41;4.87;;;3.43;;
76125;SDS011;65174;48.138;21.002;2023-02-28T04:31:43;3.92;;;2.92;;
76125;SDS011;65174;48.138;21.002;2023-02-28T04:34:45;5.72;;;2.95;;
76125;SDS011;65174;48.138;21.002;2023-02-28T04:37:47;4.53;;;2.47;;
76125;SDS011;65174;48.138;21.002;2023-02-28T04:40:49;5.72;;;3.58;;
76125;SDS011;65174;48.138;21.002;2023-02-28T04:43:51;4.83;;;3.57;;
76125;SDS011;65174;48.138;21.002;2023-02-28T04:46:54;5.82;;;2.85;;
76125;SDS011;65174;48.138;21.002;2023-02-28T04:49:56;5.75;;;3.08;;
76125;SDS011;65174;48.138;21.002;2023-02-28T04:52:58;2.97;;;2.10;;
76125;SDS011;65174;48.138;21.002;2023-02-28T04:56:00;7.70;;;3.72;;
76125;SDS011;65174;48.138;21.002;2023-02-28T04:59:02;4.80;;;2.77;;
76125;SDS011;65174;48.138;21.002;2023-02-28T05:02:04;5.18;;;2.50;;
76125;SDS011;65174;48.138;21.002;2023-02-28T05:05:08;3.28;;;1.92;;
76125;SDS011;65174;48.138;21.002;2023-02-28T05:08:10;6.30;;;2.88;;
76125;SDS011;65174;48.138;21.002;2023-02-28T05:11:19;4.63;;;2.78;;
76125;SDS011;65174;48.138;21.002;2023-02-28T05:14:24;3.63;;;2.47;;
76125;SDS011;65174;48.138;21.002;2023-02-28T05:17:27;5.75;;;3.53;;
76125;SDS011;65174;48.138;21.002;2023-02-28T05:20:29;6.35;;;2.63;;
76125;SDS011;65174;48.138;21.002;2023-02-28T05:23:31;6.10;;;3.38;;
76125;SDS011;65174;48.138;21.002;2023-02-28T05:26:34;5.43;;;3.33;;
76125;SDS011;65174;48.138;21.002;2023-02-28T05:29:37;9.27;;;2.37;;
76125;SDS011;65174;48.138;21.002;2023-02-28T05:32:43;3.13;;;2.17;;
76125;SDS011;65174;48.138;21.002;2023-02-28T05:35:45;7.20;;;3.85;;
76125;SDS011;65174;48.138;21.002;2023-02-28T05:38:48;4.13;;;3.10;;
76125;SDS011;65174;48.138;21.002;2023-02-28T05:41:51;2.77;;;1.63;;
76125;SDS011;65174;48.138;21.002;2023-02-28T05:44:53;5.97;;;2.90;;
76125;SDS011;65174;48.138;21.002;2023-02-28T05:47:55;6.55;;;3.67;;
76125;SDS011;65174;48.138;21.002;2023-02-28T05:50:57;4.07;;;2.53;;
76125;SDS011;65174;48.138;21.002;2023-02-28T05:54:00;5.57;;;3.80;;
76125;SDS011;65174;48.138;21.002;2023-02-28T05:57:02;5.90;;;3.45;;
76125;SDS011;65174;48.138;21.002;2023-02-28T06:00:13;3.47;;;2.30;;
76125;SDS011;65174;48.138;21.002;2023-02-28T06:03:17;3.38;;;2.53;;
76125;SDS011;65174;48.138;21.002;2023-02-28T06:06:19;4.60;;;3.22;;
76125;SDS011;65174;48.138;21.002;2023-02-28T06:09:21;4.20;;;2.92;;
76125;SDS011;65174;48.138;21.002;2023-02-28T06:12:23;8.25;;;3.10;;
76125;SDS011;65174;48.138;21.002;2023-02-28T06:15:25;4.53;;;2.60;;
76125;SDS011;65174;48.138;21.002;2023-02-28T06:18:28;6.93;;;3.72;;
76125;SDS011;65174;48.138;21.002;2023-02-28T06:21:34;5.03;;;4.05;;
76125;SDS011;65174;48.138;21.002;2023-02-28T06:24:36;4.55;;;3.28;;
76125;SDS011;65174;48.138;21.002;2023-02-28T06:27:38;9.60;;;4.05;;
76125;SDS011;65174;48.138;21.002;2023-02-28T06:30:41;14.27;;;5.67;;
76125;SDS011;65174;48.138;21.002;2023-02-28T06:33:45;8.75;;;4.43;;
76125;SDS011;65174;48.138;21.002;2023-02-28T06:36:50;5.10;;;2.85;;
76125;SDS011;65174;48.138;21.002;2023-02-28T06:39:53;5.93;;;3.55;;
76125;SDS011;65174;48.138;21.002;2023-02-28T06:42:59;6.43;;;2.97;;
76125;SDS011;65174;48.138;21.002;2023-02-28T06:46:03;5.60;;;2.70;;
76125;SDS011;65174;48.138;21.002;2023-02-28T06:49:07;5.10;;;2.70;;
76125;SDS011;65174;48.138;21.002;2023-02-28T06:52:12;6.00;;;3.85;;
76125;SDS011;65174;48.138;21.002;2023-02-28T06:55:14;10.30;;;4.00;;
76125;SDS011;65174;48.138;21.002;2023-02-28T06:58:16;11.30;;;4.47;;
76125;SDS011;65174;48.138;21.002;2023-02-28T07:01:22;7.83;;;4.10;;
76125;SDS011;65174;48.138;21.002;2023-02-28T07:04:25;7.55;;;3.85;;
76125;SDS011;65174;48.138;21.002;2023-02-28T07:07:28;8.43;;;3.80;;
76125;SDS011;65174;48.138;21.002;2023-02-28T07:10:30;4.68;;;2.50;;
76125;SDS011;65174;48.138;21.002;2023-02-28T07:13:32;7.38;;;2.88;;
76125;SDS011;65174;48.138;21.002;2023-02-28T07:16:35;5.73;;;3.47;;
76125;SDS011;65174;48.138;21.002;2023-02-28T07:19:38;8.02;;;2.90;;
76125;SDS011;65174;48.138;21.002;2023-02-28T07:22:41;5.85;;;3.58;;
76125;SDS011;65174;48.138;21.002;2023-02-28T07:25:43;6.05;;;3.42;;
76125;SDS011;65174;48.138;21.002;2023-02-28T07:28:47;7.70;;;3.55;;
76125;SDS011;65174;48.138;21.002;2023-02-28T07:31:49;8.90;;;3.67;;
76125;SDS011;65174;48.138;21.002;2023-02-28T07:34:54;5.18;;;3.10;;
76125;SDS011;65174;48.138;21.002;2023-02-28T07:37:57;9.48;;;3.40;;
76125;SDS011;65174;48.138;21.002;2023-02-28T07:41:00;4.93;;;3.25;;
76125;SDS011;65174;48.138;21.002;2023-02-28T07:44:02;7.15;;;3.30;;
76125;SDS011;65174;48.138;21.002;2023-02-28T07:47:04;4.17;;;2.20;;
76125;SDS011;65174;48.138;21.002;2023-02-28T07:50:07;6.13;;;4.18;;
76125;SDS011;65174;48.138;21.002;2023-02-28T07:53:11;5.90;;;3.75;;
76125;SDS011;65174;48.138;21.002;2023-02-28T07:56:13;4.82;;;2.90;;
76125;SDS011;65174;48.138;21.002;2023-02-28T07:59:14;10.67;;;4.40;;
76125;SDS011;65174;48.138;21.002;2023-02-28T08:02:17;10.40;;;3.73;;
76125;SDS011;65174;48.138;21.002;2023-02-28T08:05:20;8.23;;;3.70;;
76125;SDS011;65174;48.138;21.002;2023-02-28T08:08:22;6.80;;;3.45;;
76125;SDS011;65174;48.138;21.002;2023-02-28T08:11:25;7.90;;;3.47;;
76125;SDS011;65174;48.138;21.002;2023-02-28T08:14:27;6.50;;;3.63;;
76125;SDS011;65174;48.138;21.002;2023-02-28T08:17:29;4.77;;;3.23;;
76125;SDS011;65174;48.138;21.002;2023-02-28T08:20:31;5.97;;;3.60;;
76125;SDS011;65174;48.138;21.002;2023-02-28T08:23:33;5.97;;;2.72;;
76125;SDS011;65174;48.138;21.002;2023-02-28T08:26:35;4.55;;;2.85;;
76125;SDS011;65174;48.138;21.002;2023-02-28T08:29:38;3.93;;;3.03;;
76125;SDS011;65174;48.138;21.002;2023-02-28T08:32:40;8.40;;;3.53;;
76125;SDS011;65174;48.138;21.002;2023-02-28T08:35:43;6.25;;;3.50;;
76125;SDS011;65174;48.138;21.002;2023-02-28T08:38:45;5.95;;;3.20;;
76125;SDS011;65174;48.138;21.002;2023-02-28T08:41:47;7.22;;;4.68;;
76125;SDS011;65174;48.138;21.002;2023-02-28T08:44:59;4.47;;;2.97;;
76125;SDS011;65174;48.138;21.002;2023-02-28T08:48:01;6.50;;;3.33;;
76125;SDS011;65174;48.138;21.002;2023-02-28T08:51:04;5.13;;;2.60;;
76125;SDS011;65174;48.138;21.002;2023-02-28T08:54:09;3.72;;;2.67;;
76125;SDS011;65174;48.138;21.002;2023-02-28T08:57:13;4.78;;;3.03;;
76125;SDS011;65174;48.138;21.002;2023-02-28T09:00:15;4.10;;;3.10;;
76125;SDS011;65174;48.138;21.002;2023-02-28T09:03:18;5.60;;;2.77;;
76125;SDS011;65174;48.138;21.002;2023-02-28T09:06:23;7.18;;;2.13;;
76125;SDS011;65174;48.138;21.002;2023-02-28T09:09:26;2.47;;;2.03;;
76125;SDS011;65174;48.138;21.002;2023-02-28T09:12:28;5.57;;;2.95;;
76125;SDS011;65174;48.138;21.002;2023-02-28T09:15:37;8.13;;;3.38;;
76125;SDS011;65174;48.138;21.002;2023-02-28T09:18:39;7.03;;;3.40;;
76125;SDS011;65174;48.138;21.002;2023-02-28T09:21:42;4.45;;;3.25;;
76125;SDS011;65174;48.138;21.002;2023-02-28T09:24:44;9.25;;;2.97;;
76125;SDS011;65174;48.138;21.002;2023-02-28T09:27:46;6.93;;;4.00;;
76125;SDS011;65174;48.138;21.002;2023-02-28T09:30:49;6.93;;;3.05;;
76125;SDS011;65174;48.138;21.002;2023-02-28T09:33:54;6.77;;;2.87;;
76125;SDS011;65174;48.138;21.002;2023-02-28T09:36:57;8.10;;;4.40;;
76125;SDS011;65174;48.138;21.002;2023-02-28T09:39:59;5.53;;;2.85;;
76125;SDS011;65174;48.138;21.002;2023-02-28T09:43:01;7.47;;;2.97;;
76125;SDS011;65174;48.138;21.002;2023-02-28T09:49:24;4.43;;;3.00;;
76125;SDS011;65174;48.138;21.002;2023-02-28T09:52:33;9.00;;;4.72;;
76125;SDS011;65174;48.138;21.002;2023-02-28T09:55:37;7.03;;;3.72;;
76125;SDS011;65174;48.138;21.002;2023-02-28T09:58:49;5.45;;;3.33;;
76125;SDS011;65174;48.138;21.002;2023-02-28T10:02:10;6.40;;;3.30;;
76125;SDS011;65174;48.138;21.002;2023-02-28T10:05:39;3.93;;;2.70;;
76125;SDS011;65174;48.138;21.002;2023-02-28T10:08:52;5.30;;;4.00;;
76125;SDS011;65174;48.138;21.002;2023-02-28T10:12:11;6.30;;;3.58;;
76125;SDS011;65174;48.138;21.002;2023-02-28T10:22:44;4.53;;;2.53;;
76125;SDS011;65174;48.138;21.002;2023-02-28T10:25:59;5.90;;;3.25;;
76125;SDS011;65174;48.138;21.002;2023-02-28T10:29:03;5.65;;;3.20;;
76125;SDS011;65174;48.138;21.002;2023-02-28T10:32:05;5.65;;;3.28;;
76125;SDS011;65174;48.138;21.002;2023-02-28T10:38:24;8.10;;;3.40;;
76125;SDS011;65174;48.138;21.002;2023-02-28T10:41:30;6.53;;;3.72;;
76125;SDS011;65174;48.138;21.002;2023-02-28T10:44:37;7.22;;;3.40;;
76125;SDS011;65174;48.138;21.002;2023-02-28T10:51:08;7.85;;;3.97;;
76125;SDS011;65174;48.138;21.002;2023-02-28T10:54:16;5.77;;;3.07;;
76125;SDS011;65174;48.138;21.002;2023-02-28T10:57:24;9.30;;;4.25;;
76125;SDS011;65174;48.138;21.002;2023-02-28T11:00:31;6.22;;;3.17;;
76125;SDS011;65174;48.138;21.002;2023-02-28T11:03:35;5.30;;;2.90;;
76125;SDS011;65174;48.138;21.002;2023-02-28T11:06:38;6.78;;;4.05;;
76125;SDS011;65174;48.138;21.002;2023-02-28T11:09:40;7.83;;;3.93;;
76125;SDS011;65174;48.138;21.002;2023-02-28T11:12:44;8.40;;;4.38;;
76125;SDS011;65174;48.138;21.002;2023-02-28T11:15:57;6.40;;;3.95;;
76125;SDS011;65174;48.138;21.002;2023-02-28T11:19:02;7.43;;;4.03;;
76125;SDS011;65174;48.138;21.002;2023-02-28T11:22:06;6.20;;;3.63;;
76125;SDS011;65174;48.138;21.002;2023-02-28T11:25:09;6.57;;;3.20;;
76125;SDS011;65174;48.138;21.002;2023-02-28T11:28:26;6.47;;;4.00;;
76125;SDS011;65174;48.138;21.002;2023-02-28T11:31:35;7.88;;;3.88;;
76125;SDS011;65174;48.138;21.002;2023-02-28T11:34:37;6.90;;;3.92;;
76125;SDS011;65174;48.138;21.002;2023-02-28T11:37:40;8.15;;;4.07;;
76125;SDS011;65174;48.138;21.002;2023-02-28T11:40:45;10.60;;;5.10;;
76125;SDS011;65174;48.138;21.002;2023-02-28T11:47:17;7.00;;;3.90;;
76125;SDS011;65174;48.138;21.002;2023-02-28T11:50:37;8.05;;;3.78;;
76125;SDS011;65174;48.138;21.002;2023-02-28T11:54:05;5.25;;;3.30;;
76125;SDS011;65174;48.138;21.002;2023-02-28T11:57:30;8.80;;;4.30;;
76125;SDS011;65174;48.138;21.002;2023-02-28T12:11:05;8.63;;;4.00;;
76125;SDS011;65174;48.138;21.002;2023-02-28T12:27:11;6.43;;;3.72;;
76125;SDS011;65174;48.138;21.002;2023-02-28T12:30:21;7.55;;;4.22;;
76125;SDS011;65174;48.138;21.002;2023-02-28T12:33:28;7.13;;;4.13;;
76125;SDS011;65174;48.138;21.002;2023-02-28T13:12:35;7.68;;;4.10;;
76125;SDS011;65174;48.138;21.002;2023-02-28T13:17:39;7.88;;;4.40;;
76125;SDS011;65174;48.138;21.002;2023-02-28T15:00:23;8.68;;;4.57;;
76125;SDS011;65174;48.138;21.002;2023-02-28T15:03:32;8.55;;;4.30;;
76125;SDS011;65174;48.138;21.002;2023-02-28T15:06:38;8.53;;;4.77;;
76125;SDS011;65174;48.138;21.002;2023-02-28T15:09:40;7.60;;;4.35;;
76125;SDS011;65174;48.138;21.002;2023-02-28T15:12:51;14.38;;;5.55;;
76125;SDS011;65174;48.138;21.002;2023-02-28T15:15:59;7.53;;;4.30;;
76125;SDS011;65174;48.138;21.002;2023-02-28T15:19:05;8.20;;;4.95;;
76125;SDS011;65174;48.138;21.002;2023-02-28T15:22:16;8.57;;;4.53;;
76125;SDS011;65174;48.138;21.002;2023-02-28T15:25:21;7.05;;;4.00;;
76125;SDS011;65174;48.138;21.002;2023-02-28T15:28:24;9.20;;;5.15;;
76125;SDS011;65174;48.138;21.002;2023-02-28T15:31:34;11.50;;;6.65;;
76125;SDS011;65174;48.138;21.002;2023-02-28T15:38:26;13.40;;;6.27;;
76125;SDS011;65174;48.138;21.002;2023-02-28T15:41:30;25.17;;;6.35;;
76125;SDS011;65174;48.138;21.002;2023-02-28T15:44:39;13.50;;;6.43;;
76125;SDS011;65174;48.138;21.002;2023-02-28T15:47:44;14.65;;;6.70;;
76125;SDS011;65174;48.138;21.002;2023-02-28T15:50:49;11.30;;;5.05;;
76125;SDS011;65174;48.138;21.002;2023-02-28T15:54:00;13.40;;;5.90;;
76125;SDS011;65174;48.138;21.002;2023-02-28T15:57:13;14.60;;;6.13;;
76125;SDS011;65174;48.138;21.002;2023-02-28T16:00:21;21.45;;;8.52;;
76125;SDS011;65174;48.138;21.002;2023-02-28T16:03:37;14.95;;;6.97;;
76125;SDS011;65174;48.138;21.002;2023-02-28T16:09:59;9.33;;;5.30;;
76125;SDS011;65174;48.138;21.002;2023-02-28T16:13:02;8.70;;;4.88;;
76125;SDS011;65174;48.138;21.002;2023-02-28T16:16:04;9.02;;;4.30;;
76125;SDS011;65174;48.138;21.002;2023-02-28T16:19:07;10.93;;;6.20;;
76125;SDS011;65174;48.138;21.002;2023-02-28T16:22:10;14.45;;;7.97;;
76125;SDS011;65174;48.138;21.002;2023-02-28T16:25:13;20.20;;;9.37;;
76125;SDS011;65174;48.138;21.002;2023-02-28T16:28:18;25.90;;;11.38;;
76125;SDS011;65174;48.138;21.002;2023-02-28T16:31:22;15.38;;;7.38;;
76125;SDS011;65174;48.138;21.002;2023-02-28T16:34:24;15.38;;;7.10;;
76125;SDS011;65174;48.138;21.002;2023-02-28T16:37:27;18.02;;;9.35;;
76125;SDS011;65174;48.138;21.002;2023-02-28T16:40:29;15.10;;;9.03;;
76125;SDS011;65174;48.138;21.002;2023-02-28T16:43:35;16.15;;;8.27;;
76125;SDS011;65174;48.138;21.002;2023-02-28T16:46:39;26.08;;;11.25;;
76125;SDS011;65174;48.138;21.002;2023-02-28T16:49:41;51.50;;;18.27;;
76125;SDS011;65174;48.138;21.002;2023-02-28T16:52:45;36.75;;;15.52;;
76125;SDS011;65174;48.138;21.002;2023-02-28T16:55:47;29.00;;;12.70;;
76125;SDS011;65174;48.138;21.002;2023-02-28T16:58:49;20.40;;;10.38;;
76125;SDS011;65174;48.138;21.002;2023-02-28T17:01:52;32.08;;;14.55;;
76125;SDS011;65174;48.138;21.002;2023-02-28T17:04:55;26.10;;;10.93;;
76125;SDS011;65174;48.138;21.002;2023-02-28T17:07:57;45.30;;;19.38;;
76125;SDS011;65174;48.138;21.002;2023-02-28T17:11:00;36.40;;;17.73;;
76125;SDS011;65174;48.138;21.002;2023-02-28T17:14:03;29.42;;;14.70;;
76125;SDS011;65174;48.138;21.002;2023-02-28T17:17:06;23.27;;;13.68;;
76125;SDS011;65174;48.138;21.002;2023-02-28T17:20:12;25.27;;;13.85;;
76125;SDS011;65174;48.138;21.002;2023-02-28T17:23:20;22.33;;;12.65;;
76125;SDS011;65174;48.138;21.002;2023-02-28T17:26:22;23.13;;;12.00;;
76125;SDS011;65174;48.138;21.002;2023-02-28T17:29:29;19.02;;;9.40;;
76125;SDS011;65174;48.138;21.002;2023-02-28T17:32:32;16.70;;;7.78;;
76125;SDS011;65174;48.138;21.002;2023-02-28T17:35:34;20.40;;;9.57;;
76125;SDS011;65174;48.138;21.002;2023-02-28T17:38:36;66.10;;;28.65;;
76125;SDS011;65174;48.138;21.002;2023-02-28T17:41:38;29.20;;;13.40;;
76125;SDS011;65174;48.138;21.002;2023-02-28T17:44:40;31.23;;;17.25;;
76125;SDS011;65174;48.138;21.002;2023-02-28T17:47:43;31.02;;;16.27;;
76125;SDS011;65174;48.138;21.002;2023-02-28T17:50:49;28.08;;;15.63;;
76125;SDS011;65174;48.138;21.002;2023-02-28T17:53:51;27.80;;;14.75;;
76125;SDS011;65174;48.138;21.002;2023-02-28T17:56:54;24.73;;;12.80;;
76125;SDS011;65174;48.138;21.002;2023-02-28T17:59:56;26.60;;;12.13;;
76125;SDS011;65174;48.138;21.002;2023-02-28T18:02:59;24.20;;;11.70;;
76125;SDS011;65174;48.138;21.002;2023-02-28T18:06:02;31.92;;;14.63;;
76125;SDS011;65174;48.138;21.002;2023-02-28T18:09:04;49.90;;;20.05;;
76125;SDS011;65174;48.138;21.002;2023-02-28T18:12:07;37.23;;;16.40;;
76125;SDS011;65174;48.138;21.002;2023-02-28T18:15:10;40.67;;;18.85;;
76125;SDS011;65174;48.138;21.002;2023-02-28T18:18:12;36.95;;;14.80;;
76125;SDS011;65174;48.138;21.002;2023-02-28T18:21:14;45.35;;;19.52;;
76125;SDS011;65174;48.138;21.002;2023-02-28T18:24:18;47.63;;;17.63;;
76125;SDS011;65174;48.138;21.002;2023-02-28T18:27:21;33.37;;;13.33;;
76125;SDS011;65174;48.138;21.002;2023-02-28T18:30:25;28.88;;;13.10;;
76125;SDS011;65174;48.138;21.002;2023-02-28T18:33:31;30.90;;;13.55;;
76125;SDS011;65174;48.138;21.002;2023-02-28T18:36:33;27.30;;;11.70;;
76125;SDS011;65174;48.138;21.002;2023-02-28T18:39:36;18.65;;;9.32;;
76125;SDS011;65174;48.138;21.002;2023-02-28T18:42:38;21.83;;;11.93;;
76125;SDS011;65174;48.138;21.002;2023-02-28T18:45:40;32.15;;;12.48;;
76125;SDS011;65174;48.138;21.002;2023-02-28T18:48:43;27.63;;;11.93;;
76125;SDS011;65174;48.138;21.002;2023-02-28T18:51:46;29.92;;;12.20;;
76125;SDS011;65174;48.138;21.002;2023-02-28T18:54:48;38.30;;;14.43;;
76125;SDS011;65174;48.138;21.002;2023-02-28T18:57:50;42.03;;;17.53;;
76125;SDS011;65174;48.138;21.002;2023-02-28T19:00:53;47.50;;;19.85;;
76125;SDS011;65174;48.138;21.002;2023-02-28T19:03:55;65.43;;;22.92;;
76125;SDS011;65174;48.138;21.002;2023-02-28T19:06:59;56.88;;;20.67;;
76125;SDS011;65174;48.138;21.002;2023-02-28T19:10:03;47.53;;;21.45;;
76125;SDS011;65174;48.138;21.002;2023-02-28T19:13:06;44.80;;;17.33;;
76125;SDS011;65174;48.138;21.002;2023-02-28T19:16:10;31.48;;;14.00;;
76125;SDS011;65174;48.138;21.002;2023-02-28T19:19:14;14.10;;;7.25;;
76125;SDS011;65174;48.138;21.002;2023-02-28T19:22:16;13.68;;;7.18;;
76125;SDS011;65174;48.138;21.002;2023-02-28T19:25:19;18.50;;;8.68;;
76125;SDS011;65174;48.138;21.002;2023-02-28T19:28:21;23.27;;;9.67;;
76125;SDS011;65174;48.138;21.002;2023-02-28T19:31:24;53.45;;;17.42;;
76125;SDS011;65174;48.138;21.002;2023-02-28T19:34:27;51.28;;;16.40;;
76125;SDS011;65174;48.138;21.002;2023-02-28T19:37:30;16.67;;;7.25;;
76125;SDS011;65174;48.138;21.002;2023-02-28T19:40:36;10.85;;;5.95;;
76125;SDS011;65174;48.138;21.002;2023-02-28T19:43:38;10.50;;;5.63;;
76125;SDS011;65174;48.138;21.002;2023-02-28T19:46:40;12.63;;;5.63;;
76125;SDS011;65174;48.138;21.002;2023-02-28T19:49:42;9.70;;;5.88;;
76125;SDS011;65174;48.138;21.002;2023-02-28T19:52:45;10.38;;;5.93;;
76125;SDS011;65174;48.138;21.002;2023-02-28T19:55:51;11.77;;;6.43;;
76125;SDS011;65174;48.138;21.002;2023-02-28T19:58:56;11.90;;;6.67;;
76125;SDS011;65174;48.138;21.002;2023-02-28T20:01:58;13.55;;;6.88;;
76125;SDS011;65174;48.138;21.002;2023-02-28T20:05:01;11.75;;;6.18;;
76125;SDS011;65174;48.138;21.002;2023-02-28T20:08:05;7.20;;;4.35;;
76125;SDS011;65174;48.138;21.002;2023-02-28T20:11:08;4.43;;;2.53;;
76125;SDS011;65174;48.138;21.002;2023-02-28T20:14:12;9.00;;;3.97;;
76125;SDS011;65174;48.138;21.002;2023-02-28T20:17:15;11.52;;;5.78;;
76125;SDS011;65174;48.138;21.002;2023-02-28T20:20:19;16.50;;;7.03;;
76125;SDS011;65174;48.138;21.002;2023-02-28T20:23:21;11.52;;;5.30;;
76125;SDS011;65174;48.138;21.002;2023-02-28T20:26:24;9.18;;;5.10;;
76125;SDS011;65174;48.138;21.002;2023-02-28T20:29:26;13.93;;;6.30;;
76125;SDS011;65174;48.138;21.002;2023-02-28T20:32:28;13.45;;;6.80;;
76125;SDS011;65174;48.138;21.002;2023-02-28T20:35:32;12.57;;;6.65;;
76125;SDS011;65174;48.138;21.002;2023-02-28T20:38:35;9.95;;;6.25;;
76125;SDS011;65174;48.138;21.002;2023-02-28T20:41:37;11.43;;;4.82;;
76125;SDS011;65174;48.138;21.002;2023-02-28T20:44:42;13.77;;;6.03;;
76125;SDS011;65174;48.138;21.002;2023-02-28T20:47:44;7.78;;;4.63;;
76125;SDS011;65174;48.138;21.002;2023-02-28T20:50:48;8.90;;;5.05;;
76125;SDS011;65174;48.138;21.002;2023-02-28T20:53:53;8.43;;;5.45;;
76125;SDS011;65174;48.138;21.002;2023-02-28T20:56:56;16.38;;;7.28;;
76125;SDS011;65174;48.138;21.002;2023-02-28T20:59:58;15.13;;;6.80;;
76125;SDS011;65174;48.138;21.002;2023-02-28T21:03:00;17.35;;;8.32;;
76125;SDS011;65174;48.138;21.002;2023-02-28T21:06:02;9.73;;;5.25;;
76125;SDS011;65174;48.138;21.002;2023-02-28T21:09:05;15.27;;;6.72;;
76125;SDS011;65174;48.138;21.002;2023-02-28T21:12:09;11.73;;;5.68;;
76125;SDS011;65174;48.138;21.002;2023-02-28T21:15:11;12.43;;;6.53;;
76125;SDS011;65174;48.138;21.002;2023-02-28T21:18:13;7.15;;;4.97;;
76125;SDS011;65174;48.138;21.002;2023-02-28T21:21:16;13.77;;;6.78;;
76125;SDS011;65174;48.138;21.002;2023-02-28T21:24:20;12.48;;;6.28;;
76125;SDS011;65174;48.138;21.002;2023-02-28T21:27:23;13.83;;;7.07;;
76125;SDS011;65174;48.138;21.002;2023-02-28T21:30:25;12.70;;;6.57;;
76125;SDS011;65174;48.138;21.002;2023-02-28T21:33:27;10.35;;;5.57;;
76125;SDS011;65174;48.138;21.002;2023-02-28T21:36:31;11.30;;;6.30;;
76125;SDS011;65174;48.138;21.002;2023-02-28T21:39:40;9.38;;;5.82;;
76125;SDS011;65174;48.138;21.002;2023-02-28T21:42:42;11.40;;;4.90;;